sensor_id;sensor_type;location;lat;lon;timestamp;pressure;altitude;pressure_sealevel;temperature;humidity
64253;BME280;50592;52.958;-7.470;2023-12-20T00:01:16;101247.97;;;7.76;100.00
64253;BME280;50592;52.958;-7.470;2023-12-20T00:03:50;101252.09;;;7.80;100.00
64253;BME280;50592;52.958;-7.470;2023-12-20T00:06:36;101230.94;;;7.81;100.00
64253;BME280;50592;52.958;-7.470;2023-12-20T00:09:04;101229.66;;;7.87;100.00
64253;BME280;50592;52.958;-7.470;2023-12-20T00:11:33;101233.03;;;7.89;100.00
64253;BME280;50592;52.958;-7.470;2023-12-20T00:13:58;101237.22;;;7.92;100.00
64253;BME280;50592;52.958;-7.470;2023-12-20T00:16:24;101234.47;;;7.93;100.00
64253;BME280;50592;52.958;-7.470;2023-12-20T00:18:52;101235.22;;;7.96;100.00
64253;BME280;50592;52.958;-7.470;2023-12-20T00:21:20;101228.88;;;7.98;100.00
64253;BME280;50592;52.958;-7.470;2023-12-20T00:23:49;101239.41;;;7.98;100.00
64253;BME280;50592;52.958;-7.470;2023-12-20T00:26:15;101233.72;;;8.04;100.00
64253;BME280;50592;52.958;-7.470;2023-12-20T00:28:41;101239.72;;;8.06;100.00
64253;BME280;50592;52.958;-7.470;2023-12-20T00:31:10;101243.94;;;8.09;100.00
64253;BME280;50592;52.958;-7.470;2023-12-20T00:33:46;101254.47;;;8.09;100.00
64253;BME280;50592;52.958;-7.470;2023-12-20T00:36:18;101256.88;;;8.12;100.00
64253;BME280;50592;52.958;-7.470;2023-12-20T00:38:43;101254.97;;;8.14;100.00
64253;BME280;50592;52.958;-7.470;2023-12-20T00:41:21;101255.84;;;8.15;100.00
64253;BME280;50592;52.958;-7.470;2023-12-20T00:43:52;101255.72;;;8.16;100.00
64253;BME280;50592;52.958;-7.470;2023-12-20T00:46:18;101251.91;;;8.21;100.00
64253;BME280;50592;52.958;-7.470;2023-12-20T00:48:47;101250.97;;;8.22;100.00
64253;BME280;50592;52.958;-7.470;2023-12-20T00:51:16;101256.97;;;8.24;100.00
64253;BME280;50592;52.958;-7.470;2023-12-20T00:53:41;101246.31;;;8.25;100.00
64253;BME280;50592;52.958;-7.470;2023-12-20T00:56:07;101248.03;;;8.26;100.00
64253;BME280;50592;52.958;-7.470;2023-12-20T00:58:41;101242.53;;;8.29;100.00
64253;BME280;50592;52.958;-7.470;2023-12-20T01:01:35;101225.66;;;8.32;100.00
64253;BME280;50592;52.958;-7.470;2023-12-20T01:07:36;101216.47;;;8.38;100.00
64253;BME280;50592;52.958;-7.470;2023-12-20T01:10:22;101216.47;;;8.38;100.00
64253;BME280;50592;52.958;-7.470;2023-12-20T01:13:02;101215.41;;;8.40;100.00
64253;BME280;50592;52.958;-7.470;2023-12-20T01:15:31;101212.78;;;8.40;100.00
64253;BME280;50592;52.958;-7.470;2023-12-20T01:18:02;101224.13;;;8.41;100.00
64253;BME280;50592;52.958;-7.470;2023-12-20T01:20:48;101228.47;;;8.42;100.00
64253;BME280;50592;52.958;-7.470;2023-12-20T01:23:21;101239.03;;;8.42;100.00
64253;BME280;50592;52.958;-7.470;2023-12-20T01:26:21;101238.69;;;8.47;100.00
64253;BME280;50592;52.958;-7.470;2023-12-20T01:28:58;101225.28;;;8.50;100.00
64253;BME280;50592;52.958;-7.470;2023-12-20T01:31:45;101231.19;;;8.53;100.00
64253;BME280;50592;52.958;-7.470;2023-12-20T01:34:11;101238.91;;;8.56;100.00
64253;BME280;50592;52.958;-7.470;2023-12-20T01:36:42;101235.19;;;8.59;100.00
64253;BME280;50592;52.958;-7.470;2023-12-20T01:39:08;101235.94;;;8.61;100.00
64253;BME280;50592;52.958;-7.470;2023-12-20T01:41:34;101230.53;;;8.63;100.00
64253;BME280;50592;52.958;-7.470;2023-12-20T01:44:13;101234.00;;;8.63;100.00
64253;BME280;50592;52.958;-7.470;2023-12-20T01:46:39;101241.78;;;8.65;100.00
64253;BME280;50592;52.958;-7.470;2023-12-20T01:49:08;101231.25;;;8.65;100.00
64253;BME280;50592;52.958;-7.470;2023-12-20T01:51:39;101231.88;;;8.68;100.00
64253;BME280;50592;52.958;-7.470;2023-12-20T01:54:13;101229.13;;;8.70;100.00
64253;BME280;50592;52.958;-7.470;2023-12-20T01:56:39;101241.38;;;8.71;100.00
64253;BME280;50592;52.958;-7.470;2023-12-20T01:59:05;101236.09;;;8.71;100.00
64253;BME280;50592;52.958;-7.470;2023-12-20T02:01:35;101232.50;;;8.72;100.00
64253;BME280;50592;52.958;-7.470;2023-12-20T02:04:07;101223.75;;;8.72;100.00
64253;BME280;50592;52.958;-7.470;2023-12-20T02:06:39;101215.84;;;8.72;100.00
64253;BME280;50592;52.958;-7.470;2023-12-20T02:09:15;101224.59;;;8.72;100.00
64253;BME280;50592;52.958;-7.470;2023-12-20T02:11:47;101223.63;;;8.73;100.00
64253;BME280;50592;52.958;-7.470;2023-12-20T02:14:17;101227.00;;;8.75;100.00
64253;BME280;50592;52.958;-7.470;2023-12-20T02:16:45;101232.16;;;8.77;100.00
64253;BME280;50592;52.958;-7.470;2023-12-20T02:19:13;101222.34;;;8.79;100.00
64253;BME280;50592;52.958;-7.470;2023-12-20T02:21:39;101228.34;;;8.81;100.00
64253;BME280;50592;52.958;-7.470;2023-12-20T02:24:08;101229.19;;;8.81;100.00
64253;BME280;50592;52.958;-7.470;2023-12-20T02:26:43;101231.72;;;8.83;100.00
64253;BME280;50592;52.958;-7.470;2023-12-20T02:29:09;101228.97;;;8.85;100.00
64253;BME280;50592;52.958;-7.470;2023-12-20T02:31:48;101229.91;;;8.84;100.00
64253;BME280;50592;52.958;-7.470;2023-12-20T02:34:16;101235.19;;;8.84;100.00
64253;BME280;50592;52.958;-7.470;2023-12-20T02:36:42;101232.56;;;8.84;100.00
64253;BME280;50592;52.958;-7.470;2023-12-20T02:39:08;101236.00;;;8.84;100.00
64253;BME280;50592;52.958;-7.470;2023-12-20T02:41:34;101235.19;;;8.84;100.00
64253;BME280;50592;52.958;-7.470;2023-12-20T02:44:01;101237.09;;;8.81;100.00
64253;BME280;50592;52.958;-7.470;2023-12-20T02:46:28;101243.09;;;8.84;100.00
64253;BME280;50592;52.958;-7.470;2023-12-20T02:48:56;101237.84;;;8.84;100.00
64253;BME280;50592;52.958;-7.470;2023-12-20T02:51:22;101249.09;;;8.86;100.00
64253;BME280;50592;52.958;-7.470;2023-12-20T02:53:52;101254.59;;;8.83;100.00
64253;BME280;50592;52.958;-7.470;2023-12-20T02:56:18;101240.69;;;8.80;100.00
64253;BME280;50592;52.958;-7.470;2023-12-20T02:58:44;101243.34;;;8.80;100.00
64253;BME280;50592;52.958;-7.470;2023-12-20T03:01:23;101239.84;;;8.80;100.00
64253;BME280;50592;52.958;-7.470;2023-12-20T03:03:48;101234.56;;;8.80;100.00
64253;BME280;50592;52.958;-7.470;2023-12-20T03:06:19;101229.41;;;8.78;100.00
64253;BME280;50592;52.958;-7.470;2023-12-20T03:08:45;101239.09;;;8.78;100.00
64253;BME280;50592;52.958;-7.470;2023-12-20T03:11:11;101244.50;;;8.76;100.00
64253;BME280;50592;52.958;-7.470;2023-12-20T03:13:38;101238.63;;;8.73;100.00
64253;BME280;50592;52.958;-7.470;2023-12-20T03:16:10;101248.44;;;8.71;100.00
64253;BME280;50592;52.958;-7.470;2023-12-20T03:18:36;101236.91;;;8.72;100.00
64253;BME280;50592;52.958;-7.470;2023-12-20T03:21:02;101236.09;;;8.71;100.00
64253;BME280;50592;52.958;-7.470;2023-12-20T03:23:27;101226.50;;;8.70;100.00
64253;BME280;50592;52.958;-7.470;2023-12-20T03:25:53;101226.50;;;8.70;100.00
64253;BME280;50592;52.958;-7.470;2023-12-20T03:28:19;101218.59;;;8.70;100.00
64253;BME280;50592;52.958;-7.470;2023-12-20T03:30:46;101217.53;;;8.73;100.00
64253;BME280;50592;52.958;-7.470;2023-12-20T03:33:12;101214.56;;;8.77;100.00
64253;BME280;50592;52.958;-7.470;2023-12-20T03:39:12;101201.16;;;8.80;100.00
64253;BME280;50592;52.958;-7.470;2023-12-20T03:42:04;101207.25;;;8.81;100.00
64253;BME280;50592;52.958;-7.470;2023-12-20T03:44:30;101214.00;;;8.85;100.00
64253;BME280;50592;52.958;-7.470;2023-12-20T03:46:58;101206.91;;;8.86;100.00
64253;BME280;50592;52.958;-7.470;2023-12-20T03:49:23;101212.91;;;8.88;100.00
64253;BME280;50592;52.958;-7.470;2023-12-20T03:51:50;101209.94;;;8.92;100.00
64253;BME280;50592;52.958;-7.470;2023-12-20T03:54:15;101208.97;;;8.93;100.00
64253;BME280;50592;52.958;-7.470;2023-12-20T03:56:44;101205.38;;;8.95;100.00
64253;BME280;50592;52.958;-7.470;2023-12-20T03:59:10;101212.44;;;8.94;100.00
64253;BME280;50592;52.958;-7.470;2023-12-20T04:01:36;101216.88;;;8.93;100.00
64253;BME280;50592;52.958;-7.470;2023-12-20T04:04:01;101223.84;;;8.95;100.00
64253;BME280;50592;52.958;-7.470;2023-12-20T04:06:27;101221.22;;;8.95;100.00
64253;BME280;50592;52.958;-7.470;2023-12-20T04:08:54;101228.38;;;8.92;100.00
64253;BME280;50592;52.958;-7.470;2023-12-20T04:11:23;101230.28;;;8.90;100.00
64253;BME280;50592;52.958;-7.470;2023-12-20T04:13:52;101227.66;;;8.90;100.00
64253;BME280;50592;52.958;-7.470;2023-12-20T04:16:17;101226.94;;;8.88;100.00
64253;BME280;50592;52.958;-7.470;2023-12-20T04:18:43;101226.22;;;8.86;100.00
64253;BME280;50592;52.958;-7.470;2023-12-20T04:21:11;101230.50;;;8.87;100.00
64253;BME280;50592;52.958;-7.470;2023-12-20T04:23:37;101224.53;;;8.85;100.00
64253;BME280;50592;52.958;-7.470;2023-12-20T04:26:03;101223.56;;;8.86;100.00
64253;BME280;50592;52.958;-7.470;2023-12-20T04:28:29;101217.22;;;8.89;100.00
64253;BME280;50592;52.958;-7.470;2023-12-20T04:31:00;101212.06;;;8.87;100.00
64253;BME280;50592;52.958;-7.470;2023-12-20T04:33:29;101196.97;;;8.89;100.00
64253;BME280;50592;52.958;-7.470;2023-12-20T04:35:55;101197.81;;;8.90;100.00
64253;BME280;50592;52.958;-7.470;2023-12-20T04:38:20;101195.06;;;8.91;100.00
64253;BME280;50592;52.958;-7.470;2023-12-20T04:40:46;101194.13;;;8.92;100.00
64253;BME280;50592;52.958;-7.470;2023-12-20T04:43:11;101187.75;;;8.95;100.00
64253;BME280;50592;52.958;-7.470;2023-12-20T04:45:38;101199.16;;;8.96;100.00
64253;BME280;50592;52.958;-7.470;2023-12-20T04:48:04;101191.34;;;8.94;100.00
64253;BME280;50592;52.958;-7.470;2023-12-20T04:50:33;101194.84;;;8.95;100.00
64253;BME280;50592;52.958;-7.470;2023-12-20T04:52:58;101190.38;;;8.95;100.00
64253;BME280;50592;52.958;-7.470;2023-12-20T04:55:24;101187.06;;;8.93;100.00
64253;BME280;50592;52.958;-7.470;2023-12-20T04:57:50;101176.38;;;8.95;100.00
64253;BME280;50592;52.958;-7.470;2023-12-20T05:00:15;101185.00;;;8.97;100.00
64253;BME280;50592;52.958;-7.470;2023-12-20T05:02:41;101190.16;;;8.98;100.00
64253;BME280;50592;52.958;-7.470;2023-12-20T05:05:07;101185.63;;;9.00;100.00
64253;BME280;50592;52.958;-7.470;2023-12-20T05:07:33;101188.13;;;9.02;100.00
64253;BME280;50592;52.958;-7.470;2023-12-20T05:09:58;101192.47;;;9.03;100.00
64253;BME280;50592;52.958;-7.470;2023-12-20T05:12:27;101187.22;;;9.03;100.00
64253;BME280;50592;52.958;-7.470;2023-12-20T05:14:58;101179.06;;;9.06;100.00
64253;BME280;50592;52.958;-7.470;2023-12-20T05:17:32;101175.34;;;9.09;100.00
64253;BME280;50592;52.958;-7.470;2023-12-20T05:20:01;101171.75;;;9.10;100.00
64253;BME280;50592;52.958;-7.470;2023-12-20T05:22:37;101168.97;;;9.11;100.00
64253;BME280;50592;52.958;-7.470;2023-12-20T05:25:07;101158.44;;;9.11;100.00
64253;BME280;50592;52.958;-7.470;2023-12-20T05:27:36;101163.47;;;9.14;100.00
64253;BME280;50592;52.958;-7.470;2023-12-20T05:30:12;101161.44;;;9.18;100.00
64253;BME280;50592;52.958;-7.470;2023-12-20T05:32:40;101164.94;;;9.18;100.00
64253;BME280;50592;52.958;-7.470;2023-12-20T05:35:16;101171.75;;;9.21;100.00
64253;BME280;50592;52.958;-7.470;2023-12-20T05:37:57;101176.81;;;9.24;100.00
64253;BME280;50592;52.958;-7.470;2023-12-20T05:40:23;101177.66;;;9.25;100.00
64253;BME280;50592;52.958;-7.470;2023-12-20T05:42:49;101171.41;;;9.26;100.00
64253;BME280;50592;52.958;-7.470;2023-12-20T05:45:16;101166.13;;;9.26;100.00
64253;BME280;50592;52.958;-7.470;2023-12-20T05:47:46;101148.63;;;9.25;100.00
64253;BME280;50592;52.958;-7.470;2023-12-20T05:50:13;101156.44;;;9.26;100.00
64253;BME280;50592;52.958;-7.470;2023-12-20T05:52:39;101154.84;;;9.24;100.00
64253;BME280;50592;52.958;-7.470;2023-12-20T05:55:05;101146.94;;;9.24;100.00
64253;BME280;50592;52.958;-7.470;2023-12-20T05:57:49;101139.03;;;9.24;100.00
64253;BME280;50592;52.958;-7.470;2023-12-20T06:00:15;101131.84;;;9.26;100.00
64253;BME280;50592;52.958;-7.470;2023-12-20T06:02:42;101142.41;;;9.26;100.00
64253;BME280;50592;52.958;-7.470;2023-12-20T06:05:09;101143.13;;;9.28;100.00
64253;BME280;50592;52.958;-7.470;2023-12-20T06:07:47;101140.38;;;9.29;100.00
64253;BME280;50592;52.958;-7.470;2023-12-20T06:10:14;101137.50;;;9.33;100.00
64253;BME280;50592;52.958;-7.470;2023-12-20T06:12:40;101129.47;;;9.34;100.00
64253;BME280;50592;52.958;-7.470;2023-12-20T06:15:06;101136.16;;;9.38;100.00
64253;BME280;50592;52.958;-7.470;2023-12-20T06:17:32;101134.38;;;9.39;100.00
64253;BME280;50592;52.958;-7.470;2023-12-20T06:19:59;101139.41;;;9.42;100.00
64253;BME280;50592;52.958;-7.470;2023-12-20T06:22:27;101132.22;;;9.44;100.00
64253;BME280;50592;52.958;-7.470;2023-12-20T06:25:05;101121.53;;;9.46;100.00
64253;BME280;50592;52.958;-7.470;2023-12-20T06:27:36;101131.75;;;9.50;100.00
64253;BME280;50592;52.958;-7.470;2023-12-20T06:30:02;101116.72;;;9.51;100.00
64253;BME280;50592;52.958;-7.470;2023-12-20T06:32:29;101108.81;;;9.51;100.00
64253;BME280;50592;52.958;-7.470;2023-12-20T06:34:58;101117.56;;;9.51;100.00
64253;BME280;50592;52.958;-7.470;2023-12-20T06:37:26;101108.81;;;9.51;100.00
64253;BME280;50592;52.958;-7.470;2023-12-20T06:39:55;101110.38;;;9.53;100.00
64253;BME280;50592;52.958;-7.470;2023-12-20T06:42:23;101120.69;;;9.57;100.00
64253;BME280;50592;52.958;-7.470;2023-12-20T06:44:49;101118.06;;;9.57;100.00
64253;BME280;50592;52.958;-7.470;2023-12-20T06:47:15;101116.16;;;9.59;100.00
64253;BME280;50592;52.958;-7.470;2023-12-20T06:49:41;101134.50;;;9.60;100.00
64253;BME280;50592;52.958;-7.470;2023-12-20T06:52:10;101126.59;;;9.60;100.00
64253;BME280;50592;52.958;-7.470;2023-12-20T06:54:36;101117.69;;;9.61;100.00
64253;BME280;50592;52.958;-7.470;2023-12-20T06:57:03;101128.25;;;9.61;100.00
64253;BME280;50592;52.958;-7.470;2023-12-20T06:59:33;101121.88;;;9.64;100.00
64253;BME280;50592;52.958;-7.470;2023-12-20T07:02:11;101122.72;;;9.64;100.00
64253;BME280;50592;52.958;-7.470;2023-12-20T07:04:40;101123.47;;;9.66;100.00
64253;BME280;50592;52.958;-7.470;2023-12-20T07:07:07;101118.31;;;9.65;100.00
64253;BME280;50592;52.958;-7.470;2023-12-20T07:09:39;101114.09;;;9.62;100.00
64253;BME280;50592;52.958;-7.470;2023-12-20T07:12:12;101124.53;;;9.64;100.00
64253;BME280;50592;52.958;-7.470;2023-12-20T07:14:44;101109.66;;;9.63;100.00
64253;BME280;50592;52.958;-7.470;2023-12-20T07:17:11;101105.91;;;9.65;100.00
64253;BME280;50592;52.958;-7.470;2023-12-20T07:19:41;101111.31;;;9.64;100.00
64253;BME280;50592;52.958;-7.470;2023-12-20T07:22:18;101108.56;;;9.65;100.00
64253;BME280;50592;52.958;-7.470;2023-12-20T07:24:45;101112.06;;;9.66;100.00
64253;BME280;50592;52.958;-7.470;2023-12-20T07:30:52;101126.78;;;9.68;100.00
64253;BME280;50592;52.958;-7.470;2023-12-20T07:39:57;101111.56;;;9.72;100.00
64253;BME280;50592;52.958;-7.470;2023-12-20T07:42:24;101105.91;;;9.77;100.00
64253;BME280;50592;52.958;-7.470;2023-12-20T07:44:53;101119.13;;;9.77;100.00
64253;BME280;50592;52.958;-7.470;2023-12-20T07:50:55;101123.22;;;9.70;100.00
64253;BME280;50592;52.958;-7.470;2023-12-20T07:57:04;101105.91;;;9.65;100.00
64253;BME280;50592;52.958;-7.470;2023-12-20T07:59:34;101110.97;;;9.68;100.00
64253;BME280;50592;52.958;-7.470;2023-12-20T08:01:59;101098.72;;;9.67;100.00
64253;BME280;50592;52.958;-7.470;2023-12-20T08:04:32;101105.69;;;9.68;100.00
64253;BME280;50592;52.958;-7.470;2023-12-20T08:07:10;101083.75;;;9.68;100.00
64253;BME280;50592;52.958;-7.470;2023-12-20T08:09:39;101073.06;;;9.70;100.00
64253;BME280;50592;52.958;-7.470;2023-12-20T08:12:10;101068.03;;;9.66;100.00
64253;BME280;50592;52.958;-7.470;2023-12-20T08:14:50;101067.06;;;9.67;100.00
64253;BME280;50592;52.958;-7.470;2023-12-20T08:20:45;101082.66;;;9.71;100.00
64253;BME280;50592;52.958;-7.470;2023-12-20T08:23:15;101092.34;;;9.70;100.00
64253;BME280;50592;52.958;-7.470;2023-12-20T08:28:33;101085.16;;;9.72;100.00
64253;BME280;50592;52.958;-7.470;2023-12-20T08:31:20;101111.19;;;9.77;100.00
64253;BME280;50592;52.958;-7.470;2023-12-20T08:36:44;101118.03;;;9.79;100.00
64253;BME280;50592;52.958;-7.470;2023-12-20T08:39:14;101132.91;;;9.80;100.00
64253;BME280;50592;52.958;-7.470;2023-12-20T08:41:43;101125.69;;;9.83;100.00
64253;BME280;50592;52.958;-7.470;2023-12-20T08:44:12;101115.03;;;9.84;100.00
64253;BME280;50592;52.958;-7.470;2023-12-20T08:47:27;101115.03;;;9.84;100.00
64253;BME280;50592;52.958;-7.470;2023-12-20T08:50:14;101101.94;;;9.83;100.00
64253;BME280;50592;52.958;-7.470;2023-12-20T08:53:34;101111.19;;;9.77;100.00
64253;BME280;50592;52.958;-7.470;2023-12-20T09:00:24;101132.44;;;9.64;100.00
64253;BME280;50592;52.958;-7.470;2023-12-20T09:06:32;101105.00;;;9.55;100.00
64253;BME280;50592;52.958;-7.470;2023-12-20T09:09:05;101094.69;;;9.52;100.00
64253;BME280;50592;52.958;-7.470;2023-12-20T09:11:32;101091.06;;;9.53;100.00
64253;BME280;50592;52.958;-7.470;2023-12-20T09:16:54;101088.66;;;9.50;100.00
64253;BME280;50592;52.958;-7.470;2023-12-20T09:26:14;101071.53;;;9.44;100.00
64253;BME280;50592;52.958;-7.470;2023-12-20T09:29:14;101063.13;;;9.39;100.00
64253;BME280;50592;52.958;-7.470;2023-12-20T09:31:43;101055.69;;;9.44;100.00
64253;BME280;50592;52.958;-7.470;2023-12-20T09:56:48;101044.06;;;9.35;100.00
64253;BME280;50592;52.958;-7.470;2023-12-20T10:05:44;101037.00;;;9.36;100.00
64253;BME280;50592;52.958;-7.470;2023-12-20T10:14:58;101015.66;;;9.39;100.00
64253;BME280;50592;52.958;-7.470;2023-12-20T10:17:23;101018.28;;;9.39;100.00
64253;BME280;50592;52.958;-7.470;2023-12-20T10:20:10;100993.56;;;9.40;100.00
64253;BME280;50592;52.958;-7.470;2023-12-20T10:22:44;100996.06;;;9.41;100.00
64253;BME280;50592;52.958;-7.470;2023-12-20T10:29:20;101007.59;;;9.40;100.00
64253;BME280;50592;52.958;-7.470;2023-12-20T10:32:55;100993.44;;;9.41;100.00
64253;BME280;50592;52.958;-7.470;2023-12-20T10:47:30;101004.25;;;9.38;100.00
64253;BME280;50592;52.958;-7.470;2023-12-20T10:49:57;101013.13;;;9.37;100.00
64253;BME280;50592;52.958;-7.470;2023-12-20T10:53:43;100998.59;;;9.43;100.00
64253;BME280;50592;52.958;-7.470;2023-12-20T11:12:54;100975.91;;;9.63;100.00
64253;BME280;50592;52.958;-7.470;2023-12-20T11:15:36;100981.88;;;9.65;100.00
64253;BME280;50592;52.958;-7.470;2023-12-20T11:18:13;100973.56;;;9.70;100.00
64253;BME280;50592;52.958;-7.470;2023-12-20T11:23:58;100959.19;;;9.74;100.00
64253;BME280;50592;52.958;-7.470;2023-12-20T11:36:02;100951.44;;;9.83;100.00
64253;BME280;50592;52.958;-7.470;2023-12-20T11:39:27;100943.50;;;9.83;100.00
64253;BME280;50592;52.958;-7.470;2023-12-20T11:42:17;100937.28;;;9.84;100.00
64253;BME280;50592;52.958;-7.470;2023-12-20T11:44:43;100932.59;;;9.87;100.00
64253;BME280;50592;52.958;-7.470;2023-12-20T11:47:27;100931.75;;;9.87;100.00
64253;BME280;50592;52.958;-7.470;2023-12-20T11:49:53;100913.41;;;9.85;100.00
64253;BME280;50592;52.958;-7.470;2023-12-20T11:52:21;100924.69;;;9.87;100.00
64253;BME280;50592;52.958;-7.470;2023-12-20T11:54:50;100923.84;;;9.87;100.00
64253;BME280;50592;52.958;-7.470;2023-12-20T11:57:27;100919.16;;;9.90;100.00
64253;BME280;50592;52.958;-7.470;2023-12-20T11:59:58;100909.78;;;9.86;100.00
64253;BME280;50592;52.958;-7.470;2023-12-20T12:02:25;100904.50;;;9.86;100.00
64253;BME280;50592;52.958;-7.470;2023-12-20T12:05:17;100898.41;;;9.86;100.00
64253;BME280;50592;52.958;-7.470;2023-12-20T12:07:43;100896.59;;;9.86;100.00
64253;BME280;50592;52.958;-7.470;2023-12-20T12:25:10;100898.75;;;9.81;100.00
64253;BME280;50592;52.958;-7.470;2023-12-20T12:30:55;100881.97;;;9.82;100.00
64253;BME280;50592;52.958;-7.470;2023-12-20T12:36:28;100875.34;;;9.88;100.00
64253;BME280;50592;52.958;-7.470;2023-12-20T12:38:56;100863.81;;;9.89;100.00
64253;BME280;50592;52.958;-7.470;2023-12-20T12:49:33;100887.88;;;9.96;100.00
64253;BME280;50592;52.958;-7.470;2023-12-20T12:52:21;100870.25;;;9.96;100.00
64253;BME280;50592;52.958;-7.470;2023-12-20T12:54:48;100866.38;;;10.00;100.00
64253;BME280;50592;52.958;-7.470;2023-12-20T12:57:22;100858.44;;;10.00;100.00
64253;BME280;50592;52.958;-7.470;2023-12-20T13:08:13;100832.50;;;10.05;100.00
64253;BME280;50592;52.958;-7.470;2023-12-20T13:10:43;100833.47;;;10.04;100.00
64253;BME280;50592;52.958;-7.470;2023-12-20T13:13:12;100824.56;;;10.05;100.00
64253;BME280;50592;52.958;-7.470;2023-12-20T13:15:38;100828.88;;;10.07;100.00
64253;BME280;50592;52.958;-7.470;2023-12-20T13:18:04;100822.78;;;10.06;100.00
64253;BME280;50592;52.958;-7.470;2023-12-20T13:20:31;100821.53;;;10.10;100.00
64253;BME280;50592;52.958;-7.470;2023-12-20T13:22:57;100800.25;;;10.12;100.00
64253;BME280;50592;52.958;-7.470;2023-12-20T13:25:22;100804.47;;;10.14;100.00
64253;BME280;50592;52.958;-7.470;2023-12-20T13:27:49;100800.97;;;10.14;100.00
64253;BME280;50592;52.958;-7.470;2023-12-20T13:30:29;100791.13;;;10.16;100.00
64253;BME280;50592;52.958;-7.470;2023-12-20T13:32:55;100796.28;;;10.17;100.00
64253;BME280;50592;52.958;-7.470;2023-12-20T13:35:21;100797.81;;;10.20;100.00
64253;BME280;50592;52.958;-7.470;2023-12-20T13:37:47;100782.09;;;10.18;100.00
64253;BME280;50592;52.958;-7.470;2023-12-20T13:40:12;100782.66;;;10.22;100.00
64253;BME280;50592;52.958;-7.470;2023-12-20T13:42:41;100776.13;;;10.26;100.00
64253;BME280;50592;52.958;-7.470;2023-12-20T13:45:08;100769.72;;;10.29;100.00
64253;BME280;50592;52.958;-7.470;2023-12-20T13:47:56;100767.94;;;10.29;100.00
64253;BME280;50592;52.958;-7.470;2023-12-20T13:50:31;100774.63;;;10.34;100.00
64253;BME280;50592;52.958;-7.470;2023-12-20T13:56:01;100773.66;;;10.35;100.00
64253;BME280;50592;52.958;-7.470;2023-12-20T13:58:27;100765.72;;;10.35;100.00
64253;BME280;50592;52.958;-7.470;2023-12-20T14:00:59;100756.13;;;10.34;100.00
64253;BME280;50592;52.958;-7.470;2023-12-20T14:03:25;100761.25;;;10.35;100.00
64253;BME280;50592;52.958;-7.470;2023-12-20T14:06:37;100761.13;;;10.37;100.00
64253;BME280;50592;52.958;-7.470;2023-12-20T14:09:28;100768.09;;;10.38;100.00
64253;BME280;50592;52.958;-7.470;2023-12-20T14:15:18;100739.75;;;10.40;100.00
64253;BME280;50592;52.958;-7.470;2023-12-20T14:17:45;100748.50;;;10.40;100.00
64253;BME280;50592;52.958;-7.470;2023-12-20T14:20:15;100749.47;;;10.39;100.00
64253;BME280;50592;52.958;-7.470;2023-12-20T14:22:56;100721.94;;;10.42;100.00
64253;BME280;50592;52.958;-7.470;2023-12-20T14:25:42;100733.22;;;10.44;100.00
64253;BME280;50592;52.958;-7.470;2023-12-20T14:28:08;100729.84;;;10.42;100.00
64253;BME280;50592;52.958;-7.470;2023-12-20T14:30:49;100730.44;;;10.46;100.00
64253;BME280;50592;52.958;-7.470;2023-12-20T14:33:40;100732.69;;;10.50;100.00
64253;BME280;50592;52.958;-7.470;2023-12-20T14:36:14;100729.19;;;10.50;100.00
64253;BME280;50592;52.958;-7.470;2023-12-20T14:46:19;100709.63;;;10.52;100.00
64253;BME280;50592;52.958;-7.470;2023-12-20T14:48:59;100712.41;;;10.51;100.00
64253;BME280;50592;52.958;-7.470;2023-12-20T14:51:38;100720.19;;;10.52;100.00
64253;BME280;50592;52.958;-7.470;2023-12-20T14:54:15;100704.06;;;10.56;100.00
64253;BME280;50592;52.958;-7.470;2023-12-20T14:57:44;100698.75;;;10.56;100.00
64253;BME280;50592;52.958;-7.470;2023-12-20T15:01:05;100699.44;;;10.58;100.00
64253;BME280;50592;52.958;-7.470;2023-12-20T15:03:47;100691.38;;;10.59;100.00
64253;BME280;50592;52.958;-7.470;2023-12-20T15:06:54;100694.00;;;10.59;100.00
64253;BME280;50592;52.958;-7.470;2023-12-20T15:09:51;100694.59;;;10.63;100.00
64253;BME280;50592;52.958;-7.470;2023-12-20T15:15:17;100687.34;;;10.65;100.00
64253;BME280;50592;52.958;-7.470;2023-12-20T15:18:02;100697.09;;;10.64;100.00
64253;BME280;50592;52.958;-7.470;2023-12-20T15:20:48;100688.31;;;10.64;100.00
64253;BME280;50592;52.958;-7.470;2023-12-20T15:23:22;100695.28;;;10.65;100.00
64253;BME280;50592;52.958;-7.470;2023-12-20T15:33:18;100704.03;;;10.65;100.00
64253;BME280;50592;52.958;-7.470;2023-12-20T15:35:43;100704.03;;;10.65;100.00
64253;BME280;50592;52.958;-7.470;2023-12-20T15:38:09;100721.72;;;10.65;100.00
64253;BME280;50592;52.958;-7.470;2023-12-20T15:40:35;100719.09;;;10.65;100.00
64253;BME280;50592;52.958;-7.470;2023-12-20T15:43:01;100726.88;;;10.66;100.00
64253;BME280;50592;52.958;-7.470;2023-12-20T15:45:26;100714.59;;;10.65;100.00
64253;BME280;50592;52.958;-7.470;2023-12-20T15:47:52;100720.75;;;10.66;100.00
64253;BME280;50592;52.958;-7.470;2023-12-20T15:50:18;100715.44;;;10.66;100.00
64253;BME280;50592;52.958;-7.470;2023-12-20T15:52:48;100712.81;;;10.66;100.00
64253;BME280;50592;52.958;-7.470;2023-12-20T15:55:15;100714.50;;;10.67;100.00
64253;BME280;50592;52.958;-7.470;2023-12-20T15:57:43;100714.50;;;10.67;100.00
64253;BME280;50592;52.958;-7.470;2023-12-20T16:00:11;100719.78;;;10.67;100.00
64253;BME280;50592;52.958;-7.470;2023-12-20T16:02:39;100725.06;;;10.67;100.00
64253;BME280;50592;52.958;-7.470;2023-12-20T16:05:05;100715.31;;;10.67;100.00
64253;BME280;50592;52.958;-7.470;2023-12-20T16:07:31;100708.38;;;10.66;100.00
64253;BME280;50592;52.958;-7.470;2023-12-20T16:09:56;100707.53;;;10.66;100.00
64253;BME280;50592;52.958;-7.470;2023-12-20T16:12:26;100704.88;;;10.66;100.00
64253;BME280;50592;52.958;-7.470;2023-12-20T16:14:54;100709.06;;;10.69;100.00
64253;BME280;50592;52.958;-7.470;2023-12-20T16:17:19;100700.28;;;10.68;100.00